Time;durP1;ratioP1;P1;durP2;ratioP2;P2;SDS_P1;SDS_P2;PMS_P1;PMS_P2;Temp;Humidity;BMP_temperature;BMP_pressure;BME280_temperature;BME280_humidity;BME280_pressure;Samples;Min_cycle;Max_cycle;Signal;HPM_P1;HPM_P2
2021/09/11 00:01:22;;;;;;;16.27;10.85;;;;;;;15.26;100.00;94039.56;5113639;28;20210;-79
2021/09/11 00:03:49;;;;;;;17.25;11.48;;;;;;;15.26;100.00;94038.78;5113548;28;20229;-78
2021/09/11 00:06:17;;;;;;;17.73;10.73;;;;;;;15.26;100.00;94038.78;5113243;28;20197;-79
2021/09/11 00:08:43;;;;;;;15.50;11.15;;;;;;;15.31;100.00;94038.91;5113423;28;20211;-79
2021/09/11 00:11:11;;;;;;;16.95;10.38;;;;;;;15.31;100.00;94037.06;5113337;28;20204;-79
2021/09/11 00:13:38;;;;;;;15.38;10.63;;;;;;;15.34;100.00;94035.84;5112454;28;20197;-79
2021/09/11 00:16:07;;;;;;;15.60;10.77;;;;;;;15.32;100.00;94028.16;5113127;28;20212;-78
2021/09/11 00:18:35;;;;;;;17.17;10.52;;;;;;;15.33;100.00;94031.59;5113334;28;20212;-79
2021/09/11 00:21:02;;;;;;;18.00;10.43;;;;;;;15.36;100.00;94031.94;5113173;28;20197;-78
2021/09/11 00:23:30;;;;;;;15.77;10.70;;;;;;;15.33;100.00;94028.97;5112160;28;20228;-78
2021/09/11 00:25:59;;;;;;;16.85;10.43;;;;;;;15.40;100.00;94028.88;5113045;28;20232;-79
2021/09/11 00:28:27;;;;;;;13.73;10.68;;;;;;;15.33;100.00;94023.69;5112913;28;20197;-79
2021/09/11 00:30:53;;;;;;;17.48;11.18;;;;;;;15.29;100.00;94033.88;5110465;28;20189;-78
2021/09/11 00:33:20;;;;;;;17.35;10.35;;;;;;;15.20;100.00;94029.94;5112758;28;20651;-79
2021/09/11 00:35:46;;;;;;;13.05;9.85;;;;;;;15.13;100.00;94030.03;5113294;28;20205;-79
2021/09/11 00:38:13;;;;;;;14.75;9.82;;;;;;;15.12;100.00;94036.31;5113539;28;20201;-77
2021/09/11 00:40:39;;;;;;;16.95;11.00;;;;;;;15.11;100.00;94032.06;5112460;28;20198;-76
2021/09/11 00:43:06;;;;;;;16.55;10.50;;;;;;;15.09;100.00;94038.59;5113314;28;20193;-77
2021/09/11 00:45:33;;;;;;;16.52;11.02;;;;;;;15.02;100.00;94038.69;5112689;28;20236;-77
2021/09/11 00:48:00;;;;;;;19.92;11.02;;;;;;;14.95;100.00;94040.56;5113341;28;20220;-78
2021/09/11 00:50:26;;;;;;;14.93;11.10;;;;;;;14.91;100.00;94039.41;5107234;28;20210;-78
2021/09/11 00:53:02;;;;;;;16.92;11.07;;;;;;;14.84;100.00;94036.03;5092371;28;20198;-79
2021/09/11 00:55:31;;;;;;;13.52;9.93;;;;;;;14.78;100.00;94035.91;5092303;28;20193;-79
2021/09/11 00:57:59;;;;;;;16.25;11.10;;;;;;;14.81;100.00;94032.03;5092048;28;20230;-79
2021/09/11 01:00:28;;;;;;;14.38;10.50;;;;;;;14.76;100.00;94039.78;5110318;28;20204;-79
2021/09/11 01:02:56;;;;;;;16.80;12.02;;;;;;;14.80;100.00;94041.75;5113056;28;20209;-79
2021/09/11 01:05:23;;;;;;;19.92;11.68;;;;;;;14.78;100.00;94027.22;5112664;28;20221;-79
2021/09/11 01:07:50;;;;;;;18.30;12.90;;;;;;;14.74;100.00;94037.38;5111104;28;20442;-78
2021/09/11 01:10:17;;;;;;;16.33;11.82;;;;;;;14.70;100.00;94030.94;5112689;28;20201;-78
2021/09/11 01:12:47;;;;;;;16.73;11.02;;;;;;;14.70;100.00;94036.19;5112967;28;20201;-78
2021/09/11 01:15:14;;;;;;;16.05;10.90;;;;;;;14.70;100.00;94033.56;5113274;28;20205;-78
2021/09/11 01:17:42;;;;;;;21.25;10.57;;;;;;;14.74;100.00;94042.63;5116772;28;20193;-78
2021/09/11 01:20:13;;;;;;;14.27;10.15;;;;;;;14.78;100.00;94038.53;5116666;28;20209;-77
2021/09/11 01:22:40;;;;;;;15.07;10.63;;;;;;;14.82;100.00;94036.25;5115713;28;20671;-78
2021/09/11 01:25:11;;;;;;;14.40;11.10;;;;;;;14.82;100.00;94040.72;5115854;28;20228;-79
2021/09/11 01:27:38;;;;;;;18.20;10.70;;;;;;;14.83;100.00;94039.72;5116829;28;20204;-78
2021/09/11 01:30:09;;;;;;;17.63;10.90;;;;;;;14.85;100.00;94038.44;5116196;28;20201;-78
2021/09/11 01:32:39;;;;;;;15.43;10.60;;;;;;;14.88;100.00;94034.59;5116945;28;20258;-78
2021/09/11 01:35:07;;;;;;;15.63;10.55;;;;;;;14.86;100.00;94044.53;5115240;28;20220;-78
2021/09/11 01:37:34;;;;;;;17.73;9.60;;;;;;;14.84;100.00;94044.75;5116350;28;20212;-78
2021/09/11 01:40:03;;;;;;;10.68;8.57;;;;;;;14.83;100.00;94037.09;5116600;28;20671;-78
2021/09/11 01:42:31;;;;;;;14.90;9.77;;;;;;;14.82;100.00;94043.34;5116643;28;20208;-78
2021/09/11 01:45:02;;;;;;;14.50;9.25;;;;;;;14.83;100.00;94039.72;5116067;27;20734;-79
2021/09/11 01:47:29;;;;;;;15.95;9.85;;;;;;;14.80;100.00;94047.03;5116070;28;20197;-79
2021/09/11 01:49:55;;;;;;;15.32;10.82;;;;;;;14.79;100.00;94045.41;5114754;28;20208;-78
2021/09/11 01:52:22;;;;;;;16.38;11.25;;;;;;;14.78;100.00;94046.41;5116529;28;20201;-78
2021/09/11 01:54:49;;;;;;;17.75;10.38;;;;;;;14.80;100.00;94044.41;5116349;28;20204;-78
2021/09/11 01:57:15;;;;;;;14.25;10.30;;;;;;;14.81;100.00;94039.94;5115666;28;20297;-78
2021/09/11 01:59:46;;;;;;;13.82;9.48;;;;;;;14.83;100.00;94044.97;5116377;28;20204;-78
2021/09/11 02:02:12;;;;;;;13.88;9.95;;;;;;;14.86;100.00;94041.91;5115861;28;20205;-78
2021/09/11 02:04:39;;;;;;;17.30;10.77;;;;;;;14.86;100.00;94044.53;5116083;28;20221;-78
2021/09/11 02:07:07;;;;;;;17.50;10.10;;;;;;;14.91;100.00;94047.31;5116107;28;20208;-78
2021/09/11 02:09:35;;;;;;;14.00;9.80;;;;;;;14.96;100.00;94050.06;5115398;28;20193;-79
2021/09/11 02:12:05;;;;;;;13.63;9.23;;;;;;;14.97;100.00;94041.16;5115686;28;20211;-79
2021/09/11 02:14:32;;;;;;;13.05;8.75;;;;;;;15.01;100.00;94047.59;5114316;28;20205;-78
2021/09/11 02:17:05;;;;;;;12.32;9.00;;;;;;;15.02;100.00;94046.56;5115718;28;20556;-78
2021/09/11 02:19:35;;;;;;;13.18;8.98;;;;;;;15.06;100.00;94045.09;5115764;28;20202;-78
2021/09/11 02:22:05;;;;;;;10.85;7.70;;;;;;;15.10;100.00;94054.13;5115728;28;20675;-78
2021/09/11 02:24:32;;;;;;;11.73;7.85;;;;;;;15.13;100.00;94045.81;5115499;28;20583;-78
2021/09/11 02:26:59;;;;;;;11.30;7.78;;;;;;;15.15;100.00;94056.09;5114701;28;20232;-78
2021/09/11 02:29:25;;;;;;;12.63;7.95;;;;;;;15.15;100.00;94043.78;5113504;28;20662;-78
2021/09/11 02:31:54;;;;;;;10.85;7.78;;;;;;;15.14;100.00;94046.63;5115500;28;20576;-78
2021/09/11 02:34:21;;;;;;;9.68;7.63;;;;;;;15.14;100.00;94052.69;5115615;28;20201;-78
2021/09/11 02:36:48;;;;;;;15.65;8.95;;;;;;;15.13;100.00;94051.06;5115255;28;20198;-78
2021/09/11 02:39:15;;;;;;;11.65;6.95;;;;;;;15.16;100.00;94055.09;5114238;28;20667;-78
2021/09/11 02:41:46;;;;;;;7.97;6.13;;;;;;;15.14;100.00;94047.41;5114839;27;20652;-78
2021/09/11 02:44:17;;;;;;;9.32;6.25;;;;;;;15.12;100.00;94053.91;5114731;28;20198;-78
2021/09/11 02:46:44;;;;;;;11.82;8.52;;;;;;;15.08;100.00;94060.66;5114920;28;20215;-79
2021/09/11 02:49:10;;;;;;;8.10;5.28;;;;;;;14.95;100.00;94059.78;5114662;28;20193;-78
2021/09/11 02:51:38;;;;;;;6.85;4.38;;;;;;;14.84;100.00;94057.91;5113945;28;20651;-77
2021/09/11 02:54:05;;;;;;;7.15;3.95;;;;;;;14.70;100.00;94059.84;5115259;28;20655;-78
2021/09/11 02:56:34;;;;;;;4.90;3.90;;;;;;;14.56;100.00;94056.53;5113790;28;20290;-78
2021/09/11 02:59:00;;;;;;;6.80;5.07;;;;;;;14.47;100.00;94062.28;5114181;28;20231;-78
2021/09/11 03:01:27;;;;;;;7.05;4.70;;;;;;;14.47;100.00;94057.03;5114749;28;20661;-78
2021/09/11 03:03:55;;;;;;;7.85;4.95;;;;;;;14.38;100.00;94059.94;5115192;28;20567;-78
2021/09/11 03:06:22;;;;;;;10.18;5.13;;;;;;;14.41;100.00;94056.88;5114613;28;20221;-77
2021/09/11 03:08:50;;;;;;;6.25;4.45;;;;;;;14.38;100.00;94059.94;5114818;28;20220;-76
2021/09/11 03:11:19;;;;;;;10.18;5.53;;;;;;;14.43;100.00;94056.66;5114400;28;20208;-76
2021/09/11 03:13:48;;;;;;;8.50;5.43;;;;;;;14.32;100.00;94047.69;5114049;28;20203;-76
2021/09/11 03:16:15;;;;;;;7.93;5.32;;;;;;;14.26;100.00;94051.16;5114925;28;20227;-76
2021/09/11 03:18:41;;;;;;;8.25;5.40;;;;;;;14.24;100.00;94050.59;5114482;28;20194;-75
2021/09/11 03:21:08;;;;;;;8.77;5.13;;;;;;;14.25;100.00;94050.38;5114778;28;20210;-76
2021/09/11 03:23:35;;;;;;;8.05;5.10;;;;;;;14.33;100.00;94049.28;5114435;27;20213;-76
2021/09/11 03:26:03;;;;;;;7.60;5.07;;;;;;;14.31;100.00;94051.31;5113080;28;20260;-76
2021/09/11 03:28:32;;;;;;;8.23;5.50;;;;;;;14.29;100.00;94056.00;5113846;28;20652;-75
2021/09/11 03:31:00;;;;;;;7.68;5.28;;;;;;;14.25;100.00;94050.38;5114069;28;20201;-75
2021/09/11 03:33:27;;;;;;;8.18;5.60;;;;;;;14.24;100.00;94053.22;5114682;28;20198;-75
2021/09/11 03:35:53;;;;;;;7.07;5.07;;;;;;;14.20;100.00;94052.03;5114219;28;20201;-75
2021/09/11 03:38:19;;;;;;;7.65;5.47;;;;;;;14.20;100.00;94046.78;5114259;28;20208;-76
2021/09/11 03:40:46;;;;;;;5.80;4.45;;;;;;;14.20;100.00;94044.16;5113417;28;20202;-75
2021/09/11 03:43:16;;;;;;;5.57;4.32;;;;;;;14.19;100.00;94045.19;5114296;28;20208;-76
2021/09/11 03:45:43;;;;;;;7.57;5.07;;;;;;;14.14;100.00;94047.63;5114050;28;20236;-76
2021/09/11 03:48:10;;;;;;;9.27;4.90;;;;;;;14.13;100.00;94052.09;5114285;27;20193;-76
2021/09/11 03:50:41;;;;;;;7.93;5.25;;;;;;;14.15;100.00;94055.28;5114218;28;20639;-76
2021/09/11 03:53:07;;;;;;;7.95;4.90;;;;;;;14.17;100.00;94048.03;5114032;28;20197;-76
2021/09/11 03:55:34;;;;;;;8.80;5.18;;;;;;;14.18;100.00;94049.63;5114317;28;20205;-76
2021/09/11 03:58:04;;;;;;;5.70;4.50;;;;;;;14.18;100.00;94054.06;5112938;28;20197;-76
2021/09/11 04:00:33;;;;;;;6.35;4.10;;;;;;;14.17;100.00;94052.44;5113007;28;20201;-75
2021/09/11 04:02:59;;;;;;;6.15;4.32;;;;;;;14.13;100.00;94051.28;5113842;28;20202;-76
2021/09/11 04:05:26;;;;;;;6.07;4.40;;;;;;;14.14;100.00;94047.63;5114014;28;20221;-76
2021/09/11 04:07:52;;;;;;;6.57;4.30;;;;;;;14.16;100.00;94050.88;5113757;28;20438;-76
2021/09/11 04:10:19;;;;;;;5.50;3.90;;;;;;;14.17;100.00;94053.28;5113677;28;20197;-75
2021/09/11 04:12:45;;;;;;;6.68;3.42;;;;;;;14.14;100.00;94051.06;5113409;28;20198;-76
2021/09/11 04:15:12;;;;;;;4.97;3.65;;;;;;;14.14;100.00;94051.06;5111931;28;20308;-76
2021/09/11 04:17:40;;;;;;;4.90;3.65;;;;;;;14.14;100.00;94052.88;5113028;28;20674;-76
2021/09/11 04:20:08;;;;;;;4.88;3.83;;;;;;;14.18;100.00;94060.13;5113767;28;20625;-76
2021/09/11 04:22:36;;;;;;;4.53;3.58;;;;;;;14.17;100.00;94061.16;5113506;28;20220;-75
2021/09/11 04:25:03;;;;;;;6.97;3.40;;;;;;;14.17;100.00;94058.53;5112393;28;20556;-75
2021/09/11 04:27:30;;;;;;;5.38;3.10;;;;;;;14.19;100.00;94060.94;5113465;28;20220;-75
2021/09/11 04:29:57;;;;;;;3.70;3.15;;;;;;;14.23;100.00;94059.47;5112225;28;20197;-75
2021/09/11 04:32:24;;;;;;;3.47;2.42;;;;;;;14.23;100.00;94064.72;5112358;28;20532;-75
2021/09/11 04:34:51;;;;;;;4.07;3.15;;;;;;;14.23;100.00;94064.72;5112704;28;20314;-75
2021/09/11 04:37:18;;;;;;;4.75;3.15;;;;;;;14.23;100.00;94062.09;5113473;28;20202;-75
2021/09/11 04:39:45;;;;;;;4.75;3.20;;;;;;;14.23;100.00;94062.91;5113262;28;20227;-75
2021/09/11 04:42:11;;;;;;;4.28;3.33;;;;;;;14.20;100.00;94057.28;5113054;28;20201;-76
2021/09/11 04:44:38;;;;;;;7.50;3.67;;;;;;;14.19;100.00;94067.00;5112541;28;20681;-75
2021/09/11 04:47:05;;;;;;;3.80;3.08;;;;;;;14.17;100.00;94069.03;5112837;28;20225;-75
2021/09/11 04:49:34;;;;;;;6.10;3.47;;;;;;;14.16;100.00;94066.63;5112600;28;20269;-75
2021/09/11 04:52:02;;;;;;;5.55;3.40;;;;;;;14.16;100.00;94066.63;5112470;28;20198;-75
2021/09/11 04:54:29;;;;;;;4.70;2.90;;;;;;;14.16;100.00;94056.91;5112780;28;20282;-76
2021/09/11 04:56:55;;;;;;;5.05;3.20;;;;;;;14.17;100.00;94057.72;5113080;28;20287;-76
2021/09/11 04:59:22;;;;;;;5.40;3.42;;;;;;;14.17;100.00;94065.59;5111298;28;20594;-75
2021/09/11 05:01:48;;;;;;;6.30;3.47;;;;;;;14.18;100.00;94067.19;5112515;28;20772;-75
2021/09/11 05:04:14;;;;;;;5.65;3.25;;;;;;;14.19;100.00;94066.19;5112557;28;20193;-75
2021/09/11 05:06:42;;;;;;;5.57;3.33;;;;;;;14.17;100.00;94073.47;5112943;28;20255;-76
2021/09/11 05:09:10;;;;;;;6.57;3.65;;;;;;;14.15;100.00;94070.25;5113225;28;20194;-75
2021/09/11 05:11:37;;;;;;;5.60;3.58;;;;;;;14.15;100.00;94075.50;5113119;28;20201;-76
2021/09/11 05:14:07;;;;;;;8.88;3.53;;;;;;;14.14;100.00;94076.50;5112457;28;20217;-75
2021/09/11 05:16:35;;;;;;;5.22;3.60;;;;;;;14.13;100.00;94078.34;5111627;28;20366;-76
2021/09/11 05:19:02;;;;;;;5.50;3.25;;;;;;;14.16;100.00;94079.75;5111436;28;20201;-75
2021/09/11 05:21:28;;;;;;;4.63;3.35;;;;;;;14.15;100.00;94076.31;5112229;28;20212;-76
2021/09/11 05:23:55;;;;;;;6.70;3.70;;;;;;;14.19;100.00;94076.69;5112700;28;20651;-75
2021/09/11 05:26:23;;;;;;;5.05;3.45;;;;;;;14.20;100.00;94080.91;5112594;28;20248;-76
2021/09/11 05:28:52;;;;;;;6.70;3.50;;;;;;;14.18;100.00;94075.06;5112807;28;20202;-76
2021/09/11 05:31:19;;;;;;;5.00;3.50;;;;;;;14.21;100.00;94079.91;5112218;28;20201;-75
2021/09/11 05:33:46;;;;;;;6.75;3.65;;;;;;;14.21;100.00;94075.44;5112650;28;20228;-76
2021/09/11 05:36:12;;;;;;;6.40;3.80;;;;;;;14.23;100.00;94073.41;5112767;28;20208;-76
2021/09/11 05:38:39;;;;;;;8.07;3.47;;;;;;;14.35;100.00;94078.75;5111986;28;20630;-76
2021/09/11 05:41:05;;;;;;;6.57;3.63;;;;;;;14.37;100.00;94078.53;5111588;28;20213;-76
2021/09/11 05:43:33;;;;;;;5.57;3.92;;;;;;;14.48;100.00;94084.91;5113092;28;20197;-76
2021/09/11 05:46:00;;;;;;;5.50;3.75;;;;;;;14.61;100.00;94085.63;5112846;28;20227;-76
2021/09/11 05:48:26;;;;;;;8.80;3.95;;;;;;;14.71;100.00;94089.59;5112085;28;20201;-76
2021/09/11 05:50:54;;;;;;;6.90;3.88;;;;;;;14.79;100.00;94095.34;5112103;28;20201;-77
2021/09/11 05:53:20;;;;;;;5.10;3.25;;;;;;;14.70;100.00;94093.22;5112484;28;20288;-76
2021/09/11 05:55:47;;;;;;;6.82;3.40;;;;;;;14.83;100.00;94092.28;5112549;28;20205;-77
2021/09/11 05:58:14;;;;;;;5.18;2.95;;;;;;;14.86;100.00;94102.38;5112564;28;20200;-76
2021/09/11 06:00:43;;;;;;;4.47;3.00;;;;;;;15.03;100.00;94103.38;5111967;28;20209;-76
2021/09/11 06:03:10;;;;;;;5.10;3.03;;;;;;;15.11;100.00;94104.91;5112923;28;20201;-76
2021/09/11 06:05:37;;;;;;;7.20;3.58;;;;;;;15.05;100.00;94105.78;5115221;28;20208;-77
2021/09/11 06:08:06;;;;;;;4.72;2.90;;;;;;;15.14;100.00;94100.03;5115870;28;20278;-77
2021/09/11 06:10:32;;;;;;;3.92;2.50;;;;;;;15.19;100.00;94104.63;5115855;28;20209;-76
2021/09/11 06:13:00;;;;;;;4.68;2.45;;;;;;;15.29;100.00;94110.16;5114767;28;20198;-76
2021/09/11 06:15:26;;;;;;;4.05;2.67;;;;;;;15.22;100.00;94108.63;5116135;27;20232;-77
2021/09/11 06:17:54;;;;;;;4.65;2.72;;;;;;;15.31;100.00;94107.31;5115451;27;20196;-77
2021/09/11 06:20:22;;;;;;;4.43;2.67;;;;;;;15.35;100.00;94108.47;5115787;28;20197;-77
2021/09/11 06:22:49;;;;;;;6.07;3.10;;;;;;;15.35;100.00;94111.09;5115149;28;20558;-76
2021/09/11 06:25:18;;;;;;;5.32;3.42;;;;;;;15.45;100.00;94106.09;5115053;28;20225;-77
2021/09/11 06:27:45;;;;;;;3.67;2.80;;;;;;;15.51;100.00;94113.13;5115620;28;20662;-77
2021/09/11 06:30:14;;;;;;;4.57;3.08;;;;;;;15.53;100.00;94108.44;5115585;28;20213;-77
2021/09/11 06:32:42;;;;;;;3.58;2.72;;;;;;;15.44;100.00;94115.03;5114261;28;20201;-77
2021/09/11 06:35:19;;;;;;;3.88;2.85;;;;;;;15.40;100.00;94107.81;5114025;28;20198;-77
2021/09/11 06:37:45;;;;;;;4.18;2.63;;;;;;;15.36;100.00;94112.72;5115325;28;20205;-77
2021/09/11 06:40:16;;;;;;;4.47;2.70;;;;;;;15.39;100.00;94117.53;5114057;28;20204;-76
2021/09/11 06:42:56;;;;;;;3.67;2.63;;;;;;;15.38;100.00;94110.66;5114589;28;20223;-77
2021/09/11 06:45:23;;;;;;;4.05;2.80;;;;;;;15.37;100.00;94111.69;5115427;28;20204;-77
2021/09/11 06:47:51;;;;;;;6.55;2.63;;;;;;;15.46;100.00;94114.81;5114782;28;20229;-77
2021/09/11 06:50:19;;;;;;;4.18;2.60;;;;;;;15.49;100.00;94117.00;5114177;28;20710;-78
2021/09/11 06:52:46;;;;;;;4.28;2.60;;;;;;;15.54;100.00;94111.88;5114173;28;20309;-77
2021/09/11 06:55:12;;;;;;;4.32;3.13;;;;;;;15.66;100.00;94114.56;5114601;28;20229;-77
2021/09/11 06:57:40;;;;;;;5.05;2.88;;;;;;;15.79;100.00;94108.34;5114917;28;20197;-77
2021/09/11 07:00:09;;;;;;;4.85;2.88;;;;;;;15.86;100.00;94111.69;5114924;28;20201;-77
2021/09/11 07:02:36;;;;;;;4.50;2.70;;;;;;;15.88;100.00;94109.63;5114930;28;20208;-77
2021/09/11 07:05:04;;;;;;;4.22;3.05;;;;;;;16.11;100.00;94111.50;5113900;28;20197;-77
2021/09/11 07:07:36;;;;;;;4.85;2.33;;;;;;;16.25;100.00;94106.81;5114401;28;20221;-76
2021/09/11 07:10:08;;;;;;;3.35;2.50;;;;;;;16.36;100.00;94110.50;5113882;28;20474;-77
2021/09/11 07:12:36;;;;;;;4.82;2.42;;;;;;;16.44;100.00;94107.53;5113982;28;20201;-77
2021/09/11 07:15:03;;;;;;;3.55;2.30;;;;;;;16.53;100.00;94108.00;5114425;28;20204;-77
2021/09/11 07:17:30;;;;;;;2.70;1.80;;;;;;;16.73;100.00;94105.03;5114556;28;20200;-77
2021/09/11 07:20:05;;;;;;;3.17;2.20;;;;;;;16.51;100.00;94108.22;5113965;28;20209;-77
2021/09/11 07:22:33;;;;;;;5.72;2.35;;;;;;;16.60;100.00;94106.88;5114718;28;20200;-77
2021/09/11 07:25:02;;;;;;;3.80;2.25;;;;;;;16.74;100.00;94106.63;5114302;28;20201;-77
2021/09/11 07:27:29;;;;;;;5.63;2.30;;;;;;;16.65;100.00;94108.78;5114268;28;20232;-78
2021/09/11 07:29:56;;;;;;;6.25;2.25;;;;;;;16.66;100.00;94107.78;5114486;28;20205;-77
2021/09/11 07:32:23;;;;;;;3.63;2.30;;;;;;;16.73;100.00;94107.66;5114011;28;20647;-78
2021/09/11 07:34:49;;;;;;;3.70;2.20;;;;;;;16.61;100.00;94113.72;5114137;28;20205;-76
2021/09/11 07:37:18;;;;;;;5.03;2.30;;;;;;;16.55;100.00;94113.84;5114363;28;20209;-78
2021/09/11 07:39:48;;;;;;;3.67;2.30;;;;;;;16.55;100.00;94109.34;5114476;28;20205;-77
2021/09/11 07:42:15;;;;;;;4.13;2.35;;;;;;;16.58;100.00;94114.19;5113359;28;20192;-78
2021/09/11 07:44:41;;;;;;;4.25;2.33;;;;;;;16.68;100.00;94112.81;5114488;28;20246;-77
2021/09/11 07:47:08;;;;;;;3.28;2.00;;;;;;;16.79;100.00;94114.66;5114201;28;20228;-77
2021/09/11 07:49:43;;;;;;;4.68;1.90;;;;;;;16.89;100.00;94120.19;5109601;28;20232;-79
2021/09/11 07:52:09;;;;;;;4.10;2.40;;;;;;;16.91;100.00;94115.47;5113853;28;20213;-78
2021/09/11 07:54:36;;;;;;;3.08;1.98;;;;;;;16.94;100.00;94122.13;5113360;28;20936;-78
2021/09/11 07:57:04;;;;;;;6.43;1.80;;;;;;;17.05;100.00;94123.13;5113189;28;20904;-78
2021/09/11 07:59:30;;;;;;;2.40;1.80;;;;;;;17.22;100.00;94124.03;5113310;28;20651;-78
2021/09/11 08:02:03;;;;;;;3.55;1.70;;;;;;;17.45;100.00;94133.69;5113759;28;20662;-79
2021/09/11 08:04:30;;;;;;;4.38;1.90;;;;;;;17.57;100.00;94131.06;5112703;28;20266;-79
2021/09/11 08:06:57;;;;;;;2.70;1.90;;;;;;;17.80;100.00;94131.97;5113377;28;20769;-79
2021/09/11 08:09:26;;;;;;;3.60;1.70;;;;;;;18.17;100.00;94124.50;5113091;28;20712;-79
2021/09/11 08:11:54;;;;;;;2.45;1.70;;;;;;;18.37;100.00;94128.50;5112558;28;20202;-79
2021/09/11 08:14:25;;;;;;;2.65;1.98;;;;;;;18.24;100.00;94125.13;5112862;28;20201;-78
2021/09/11 08:16:53;;;;;;;4.25;1.92;;;;;;;18.05;100.00;94137.78;5113497;28;20250;-79
2021/09/11 08:19:20;;;;;;;4.70;1.90;;;;;;;17.85;100.00;94143.47;5092058;28;20289;-79
2021/09/11 08:21:51;;;;;;;3.00;2.10;;;;;;;17.81;100.00;94137.03;5092664;28;20201;-77
2021/09/11 08:24:18;;;;;;;3.17;2.00;;;;;;;17.84;100.00;94147.13;5092846;28;20198;-78
2021/09/11 08:26:49;;;;;;;3.70;1.80;;;;;;;17.34;100.00;94138.00;5092287;28;20672;-80
2021/09/11 08:29:18;;;;;;;3.60;2.20;;;;;;;17.19;100.00;94150.88;5092003;28;20202;-80
2021/09/11 08:31:48;;;;;;;3.88;2.10;;;;;;;17.06;100.00;94145.84;5092799;28;20652;-79
2021/09/11 08:34:16;;;;;;;5.20;2.35;;;;;;;17.14;100.00;94145.50;5093180;28;20281;-79
2021/09/11 08:36:42;;;;;;;3.30;2.00;;;;;;;17.44;100.00;94147.16;5101635;28;20842;-78
2021/09/11 08:39:12;;;;;;;4.82;2.20;;;;;;;17.83;100.00;94144.72;5113079;28;20197;-78
2021/09/11 08:41:40;;;;;;;2.58;1.90;;;;;;;18.01;100.00;94141.91;5111651;28;20734;-78
2021/09/11 08:44:10;;;;;;;3.45;1.85;;;;;;;18.22;100.00;94137.78;5111982;28;20208;-79
2021/09/11 08:46:38;;;;;;;4.38;2.10;;;;;;;18.30;100.00;94141.88;5112676;28;20229;-79
2021/09/11 08:49:10;;;;;;;3.45;1.60;;;;;;;18.56;100.00;94134.34;5113505;28;20293;-78
2021/09/11 08:51:42;;;;;;;4.43;2.17;;;;;;;18.67;100.00;94136.13;5113458;28;20207;-78
2021/09/11 08:54:09;;;;;;;2.67;1.90;;;;;;;18.64;100.00;94140.03;5112950;28;20201;-78
2021/09/11 08:56:41;;;;;;;3.65;2.03;;;;;;;19.08;100.00;94139.34;5111637;28;20206;-78
2021/09/11 08:59:08;;;;;;;4.68;2.15;;;;;;;19.55;100.00;94133.59;5113250;28;20205;-78
2021/09/11 09:01:35;;;;;;;2.58;1.63;;;;;;;19.89;100.00;94128.16;5112289;28;20212;-77
2021/09/11 09:04:01;;;;;;;2.55;1.48;;;;;;;20.00;100.00;94138.88;5113153;28;20223;-78
2021/09/11 09:06:31;;;;;;;2.58;1.70;;;;;;;20.36;100.00;94131.25;5112922;28;20242;-78
2021/09/11 09:09:10;;;;;;;3.63;2.13;;;;;;;20.06;100.00;94136.00;5112936;28;20201;-78
2021/09/11 09:11:42;;;;;;;2.67;1.77;;;;;;;19.50;100.00;94133.56;5113035;28;20205;-77
2021/09/11 09:14:15;;;;;;;3.50;2.05;;;;;;;19.20;100.00;94132.13;5111984;28;20198;-77
2021/09/11 09:16:51;;;;;;;2.42;1.80;;;;;;;19.32;100.00;94132.00;5112085;28;20667;-78
2021/09/11 09:19:20;;;;;;;3.20;1.85;;;;;;;19.49;100.00;94136.44;5091579;28;20671;-77
2021/09/11 09:21:50;;;;;;;2.40;1.80;;;;;;;19.64;100.00;94135.81;5092334;28;20202;-77
2021/09/11 09:24:31;;;;;;;2.70;1.70;;;;;;;19.35;100.00;94138.63;5092916;28;20198;-77
2021/09/11 09:26:59;;;;;;;3.10;1.73;;;;;;;18.84;100.00;94144.84;5091653;28;20332;-77
2021/09/11 09:29:26;;;;;;;3.55;1.40;;;;;;;18.74;100.00;94135.97;5091042;28;20209;-76
2021/09/11 09:31:59;;;;;;;5.43;2.10;;;;;;;18.92;100.00;94132.25;5092554;28;20202;-77
2021/09/11 09:34:31;;;;;;;3.03;1.80;;;;;;;19.12;100.00;94139.66;5092524;28;20244;-77
2021/09/11 09:37:06;;;;;;;4.18;1.90;;;;;;;19.83;100.00;94128.38;5093023;28;20251;-77
2021/09/11 09:39:42;;;;;;;3.55;1.92;;;;;;;20.11;95.61;94133.41;5096461;28;20202;-76
2021/09/11 09:42:09;;;;;;;3.90;1.60;;;;;;;20.89;93.73;94126.91;5095061;28;20717;-77
2021/09/11 09:44:43;;;;;;;5.40;1.90;;;;;;;21.18;96.27;94127.34;5094433;28;20656;-79
2021/09/11 09:47:16;;;;;;;1.90;1.30;;;;;;;21.86;91.30;94125.75;5095980;28;20217;-79
2021/09/11 09:50:05;;;;;;;6.03;2.42;;;;;;;22.03;90.60;94123.66;5096329;28;20205;-79
2021/09/11 09:52:33;;;;;;;3.15;1.80;;;;;;;21.47;89.60;94120.81;5096259;28;20224;-79
2021/09/11 09:55:00;;;;;;;2.97;1.48;;;;;;;21.99;87.22;94122.59;5095591;28;20194;-79
2021/09/11 09:57:30;;;;;;;3.65;1.77;;;;;;;21.92;87.66;94130.03;5096014;28;20225;-79
2021/09/11 09:59:59;;;;;;;1.77;1.30;;;;;;;22.08;87.55;94121.03;5094500;28;20202;-79
2021/09/11 10:02:28;;;;;;;2.03;1.05;;;;;;;21.96;89.18;94115.13;5095423;28;20274;-79
2021/09/11 10:05:08;;;;;;;1.77;1.27;;;;;;;21.63;89.87;94117.16;5095280;28;20194;-80
2021/09/11 10:07:36;;;;;;;2.45;1.60;;;;;;;21.15;92.04;94111.09;5095303;28;20580;-81
2021/09/11 10:10:03;;;;;;;2.47;1.40;;;;;;;21.52;87.48;94115.56;5095616;28;20202;-78
2021/09/11 10:12:30;;;;;;;3.35;1.50;;;;;;;21.78;87.05;94119.09;5095188;28;20193;-79
2021/09/11 10:15:29;;;;;;;3.17;1.35;;;;;;;21.24;91.13;94109.56;5094366;28;20297;-79
2021/09/11 10:17:58;;;;;;;2.65;1.50;;;;;;;21.68;88.18;94117.19;5103236;28;20225;-78
2021/09/11 10:20:25;;;;;;;3.38;1.60;;;;;;;22.02;86.93;94100.00;5116032;28;20209;-79
2021/09/11 10:23:08;;;;;;;2.30;1.58;;;;;;;21.73;86.76;94109.25;5115876;28;20536;-79
2021/09/11 10:25:40;;;;;;;2.50;1.50;;;;;;;22.30;82.74;94104.03;5115854;28;20236;-79
2021/09/11 10:28:14;;;;;;;2.35;1.48;;;;;;;21.86;85.86;94104.50;5115411;28;20217;-79
2021/09/11 10:31:03;;;;;;;2.53;1.40;;;;;;;21.13;89.61;94108.69;5115550;28;20208;-79
2021/09/11 10:33:43;;;;;;;3.92;1.50;;;;;;;20.87;90.01;94092.66;5115198;28;20203;-79
2021/09/11 10:36:11;;;;;;;4.15;1.50;;;;;;;20.91;93.40;94098.22;5115700;28;20724;-79
2021/09/11 10:38:41;;;;;;;4.28;2.05;;;;;;;20.53;90.99;94092.13;5115332;28;20237;-79
2021/09/11 10:41:10;;;;;;;3.85;1.45;;;;;;;20.53;92.85;94100.06;5115324;28;20288;-79
2021/09/11 10:43:39;;;;;;;3.80;1.95;;;;;;;20.39;92.54;94093.63;5114477;28;20288;-79
2021/09/11 10:46:08;;;;;;;3.58;1.73;;;;;;;20.58;92.94;94086.84;5114208;28;20201;-78
2021/09/11 10:48:52;;;;;;;2.85;1.75;;;;;;;20.65;91.42;94090.13;5113986;28;20229;-79
2021/09/11 10:51:32;;;;;;;2.15;1.60;;;;;;;21.61;97.29;94079.44;5114068;28;20201;-79
2021/09/11 10:54:12;;;;;;;2.95;1.45;;;;;;;22.58;85.76;94072.63;5114986;28;20193;-80
2021/09/11 10:56:44;;;;;;;3.28;1.50;;;;;;;23.38;78.89;94079.91;5115046;28;20193;-79
2021/09/11 10:59:44;;;;;;;4.38;1.30;;;;;;;23.80;78.51;94070.66;5113970;28;20209;-79
2021/09/11 11:02:23;;;;;;;2.33;1.40;;;;;;;23.59;77.93;94065.41;5115275;28;20205;-79
2021/09/11 11:05:08;;;;;;;1.00;0.90;;;;;;;23.87;76.13;94060.50;5115001;28;20239;-79
2021/09/11 11:07:40;;;;;;;1.50;0.90;;;;;;;23.85;76.66;94067.97;5113857;28;20229;-80
2021/09/11 11:10:13;;;;;;;1.10;0.98;;;;;;;23.82;74.92;94060.53;5114486;28;20240;-79
2021/09/11 11:12:45;;;;;;;1.30;0.98;;;;;;;24.26;73.61;94066.91;5113139;28;20652;-79
2021/09/11 11:15:14;;;;;;;1.38;0.90;;;;;;;23.75;70.79;94068.03;5113758;28;20288;-79
2021/09/11 11:17:44;;;;;;;1.20;0.93;;;;;;;23.99;72.21;94068.94;5112160;28;20194;-78
2021/09/11 11:20:15;;;;;;;1.98;1.00;;;;;;;23.38;70.43;94070.06;5110433;28;20194;-79
2021/09/11 11:22:43;;;;;;;1.83;0.90;;;;;;;22.92;78.09;94073.63;5114406;28;20670;-78
2021/09/11 11:25:14;;;;;;;2.47;1.02;;;;;;;20.87;88.92;94094.50;5114225;28;20256;-78
2021/09/11 11:27:41;;;;;;;3.55;1.33;;;;;;;19.77;97.57;94114.28;5114207;28;20221;-75
2021/09/11 11:30:11;;;;;;;3.75;1.60;;;;;;;18.79;100.00;94110.38;5113178;28;20198;-77
2021/09/11 11:32:38;;;;;;;2.50;1.20;;;;;;;18.48;100.00;94102.00;5113908;28;20197;-77